EPPO/POZ METAR and TAF weather

Enter ICAO airport designator
Station Type Date Time Source
EPPO METAR 2020/12/05 06:00 UTC NOAA

EPPO 050600Z 12013KT CAVOK 05/03 Q1000


Station Type Date Time Source
EPPO Decoded METAR 2020/12/05 06:00 UTC NOAA

Poznan, Poland (EPPO) 52-25N 016-50E 92M
Dec 05, 2020 - 01:00 AM EST / 2020.12.05 0600 UTC
Wind: from the ESE (120 degrees) at 15 MPH (13 KT):0
Visibility: greater than 7 mile(s):0
Temperature: 41 F (5 C)
Dew Point: 37 F (3 C)
Relative Humidity: 86%
Pressure (altimeter): 29.53 in. Hg (1000 hPa)
ob: EPPO 050600Z 12013KT CAVOK 05/03 Q1000
cycle: 6

Station Type Date Time Source
EPPO TAF 2020/12/05 06:33 UTC NOAA

TAF EPPO 050530Z 0506/0606 14012KT CAVOK
TEMPO 0506/0512 15016G26KT
TEMPO 0521/0606 14016G28KT

Example: see airport list